sensor_id;sensor_type;location;lat;lon;timestamp;P1;durP1;ratioP1;P2;durP2;ratioP2
26936;SDS011;14495;48.116;11.676;2023-08-12T00:01:59;6.70;;;5.60;;
26936;SDS011;14495;48.116;11.676;2023-08-12T00:04:24;6.65;;;5.07;;
26936;SDS011;14495;48.116;11.676;2023-08-12T00:06:49;9.85;;;6.03;;
26936;SDS011;14495;48.116;11.676;2023-08-12T00:09:15;13.00;;;5.63;;
26936;SDS011;14495;48.116;11.676;2023-08-12T00:11:40;9.48;;;6.03;;
26936;SDS011;14495;48.116;11.676;2023-08-12T00:14:06;8.07;;;5.43;;
26936;SDS011;14495;48.116;11.676;2023-08-12T00:16:31;8.32;;;5.38;;
26936;SDS011;14495;48.116;11.676;2023-08-12T00:18:57;7.97;;;5.43;;
26936;SDS011;14495;48.116;11.676;2023-08-12T00:21:23;8.43;;;5.80;;
26936;SDS011;14495;48.116;11.676;2023-08-12T00:23:50;9.65;;;5.82;;
26936;SDS011;14495;48.116;11.676;2023-08-12T00:26:15;8.65;;;5.45;;
26936;SDS011;14495;48.116;11.676;2023-08-12T00:28:41;9.82;;;5.53;;
26936;SDS011;14495;48.116;11.676;2023-08-12T00:31:06;10.10;;;6.43;;
26936;SDS011;14495;48.116;11.676;2023-08-12T00:33:32;6.40;;;4.75;;
26936;SDS011;14495;48.116;11.676;2023-08-12T00:35:58;7.55;;;5.00;;
26936;SDS011;14495;48.116;11.676;2023-08-12T00:38:24;8.43;;;5.82;;
26936;SDS011;14495;48.116;11.676;2023-08-12T00:40:49;8.02;;;4.97;;
26936;SDS011;14495;48.116;11.676;2023-08-12T00:43:15;6.40;;;4.95;;
26936;SDS011;14495;48.116;11.676;2023-08-12T00:45:40;9.85;;;4.35;;
26936;SDS011;14495;48.116;11.676;2023-08-12T00:48:06;6.82;;;4.85;;
26936;SDS011;14495;48.116;11.676;2023-08-12T00:50:36;9.00;;;4.47;;
26936;SDS011;14495;48.116;11.676;2023-08-12T00:53:02;6.63;;;4.43;;
26936;SDS011;14495;48.116;11.676;2023-08-12T00:55:31;5.70;;;4.47;;
26936;SDS011;14495;48.116;11.676;2023-08-12T00:58:00;5.72;;;4.30;;
26936;SDS011;14495;48.116;11.676;2023-08-12T01:00:27;7.78;;;4.47;;
26936;SDS011;14495;48.116;11.676;2023-08-12T01:02:53;9.85;;;4.32;;
26936;SDS011;14495;48.116;11.676;2023-08-12T01:05:20;6.95;;;4.80;;
26936;SDS011;14495;48.116;11.676;2023-08-12T01:07:46;5.68;;;4.32;;
26936;SDS011;14495;48.116;11.676;2023-08-12T01:10:12;4.97;;;4.05;;
26936;SDS011;14495;48.116;11.676;2023-08-12T01:12:44;7.15;;;4.22;;
26936;SDS011;14495;48.116;11.676;2023-08-12T01:15:15;5.15;;;4.05;;
26936;SDS011;14495;48.116;11.676;2023-08-12T01:17:46;5.18;;;4.13;;
26936;SDS011;14495;48.116;11.676;2023-08-12T01:20:17;5.38;;;4.10;;
26936;SDS011;14495;48.116;11.676;2023-08-12T01:22:52;6.65;;;4.40;;
26936;SDS011;14495;48.116;11.676;2023-08-12T01:25:23;4.18;;;3.70;;
26936;SDS011;14495;48.116;11.676;2023-08-12T01:27:51;5.63;;;4.10;;
26936;SDS011;14495;48.116;11.676;2023-08-12T01:30:16;5.68;;;4.32;;
26936;SDS011;14495;48.116;11.676;2023-08-12T01:35:26;4.43;;;3.60;;
26936;SDS011;14495;48.116;11.676;2023-08-12T01:37:58;4.40;;;3.60;;
26936;SDS011;14495;48.116;11.676;2023-08-12T01:40:26;7.97;;;3.83;;
26936;SDS011;14495;48.116;11.676;2023-08-12T01:42:56;6.90;;;4.43;;
26936;SDS011;14495;48.116;11.676;2023-08-12T01:45:24;6.50;;;4.22;;
26936;SDS011;14495;48.116;11.676;2023-08-12T01:47:49;5.53;;;4.13;;
26936;SDS011;14495;48.116;11.676;2023-08-12T01:50:16;5.68;;;4.20;;
26936;SDS011;14495;48.116;11.676;2023-08-12T01:52:42;7.38;;;3.95;;
26936;SDS011;14495;48.116;11.676;2023-08-12T01:55:08;4.93;;;4.10;;
26936;SDS011;14495;48.116;11.676;2023-08-12T01:57:33;5.60;;;3.90;;
26936;SDS011;14495;48.116;11.676;2023-08-12T02:00:00;5.60;;;4.07;;
26936;SDS011;14495;48.116;11.676;2023-08-12T02:02:26;7.55;;;4.75;;
26936;SDS011;14495;48.116;11.676;2023-08-12T02:04:54;6.82;;;4.63;;
26936;SDS011;14495;48.116;11.676;2023-08-12T02:07:19;6.65;;;4.60;;
26936;SDS011;14495;48.116;11.676;2023-08-12T02:09:44;4.88;;;4.22;;
26936;SDS011;14495;48.116;11.676;2023-08-12T02:12:10;6.13;;;4.05;;
26936;SDS011;14495;48.116;11.676;2023-08-12T02:14:35;9.25;;;4.53;;
26936;SDS011;14495;48.116;11.676;2023-08-12T02:17:03;6.30;;;4.43;;
26936;SDS011;14495;48.116;11.676;2023-08-12T02:19:32;6.80;;;4.80;;
26936;SDS011;14495;48.116;11.676;2023-08-12T02:21:58;7.63;;;4.95;;
26936;SDS011;14495;48.116;11.676;2023-08-12T02:24:24;8.57;;;4.10;;
26936;SDS011;14495;48.116;11.676;2023-08-12T02:26:50;8.50;;;4.78;;
26936;SDS011;14495;48.116;11.676;2023-08-12T02:29:15;6.22;;;4.28;;
26936;SDS011;14495;48.116;11.676;2023-08-12T02:31:40;6.63;;;4.63;;
26936;SDS011;14495;48.116;11.676;2023-08-12T02:34:06;6.18;;;4.43;;
26936;SDS011;14495;48.116;11.676;2023-08-12T02:36:34;5.95;;;4.68;;
26936;SDS011;14495;48.116;11.676;2023-08-12T02:39:00;5.60;;;4.63;;
26936;SDS011;14495;48.116;11.676;2023-08-12T02:41:25;5.93;;;4.93;;
26936;SDS011;14495;48.116;11.676;2023-08-12T02:43:50;6.95;;;4.43;;
26936;SDS011;14495;48.116;11.676;2023-08-12T02:46:16;8.93;;;4.50;;
26936;SDS011;14495;48.116;11.676;2023-08-12T02:48:43;5.50;;;4.45;;
26936;SDS011;14495;48.116;11.676;2023-08-12T02:51:09;4.60;;;4.15;;
26936;SDS011;14495;48.116;11.676;2023-08-12T02:53:35;5.63;;;4.60;;
26936;SDS011;14495;48.116;11.676;2023-08-12T02:56:00;7.13;;;4.68;;
26936;SDS011;14495;48.116;11.676;2023-08-12T02:58:28;7.72;;;5.15;;
26936;SDS011;14495;48.116;11.676;2023-08-12T03:00:54;5.65;;;4.20;;
26936;SDS011;14495;48.116;11.676;2023-08-12T03:03:19;6.82;;;4.72;;
26936;SDS011;14495;48.116;11.676;2023-08-12T03:05:46;6.20;;;4.30;;
26936;SDS011;14495;48.116;11.676;2023-08-12T03:08:12;5.75;;;4.55;;
26936;SDS011;14495;48.116;11.676;2023-08-12T03:10:38;4.40;;;3.95;;
26936;SDS011;14495;48.116;11.676;2023-08-12T03:13:05;7.47;;;4.60;;
26936;SDS011;14495;48.116;11.676;2023-08-12T03:15:31;14.45;;;5.00;;
26936;SDS011;14495;48.116;11.676;2023-08-12T03:17:56;7.60;;;4.90;;
26936;SDS011;14495;48.116;11.676;2023-08-12T03:20:22;8.65;;;4.82;;
26936;SDS011;14495;48.116;11.676;2023-08-12T03:22:49;5.88;;;4.50;;
26936;SDS011;14495;48.116;11.676;2023-08-12T03:25:16;6.82;;;4.40;;
26936;SDS011;14495;48.116;11.676;2023-08-12T03:27:42;5.90;;;4.57;;
26936;SDS011;14495;48.116;11.676;2023-08-12T03:30:09;8.88;;;5.18;;
26936;SDS011;14495;48.116;11.676;2023-08-12T03:32:35;5.45;;;4.85;;
26936;SDS011;14495;48.116;11.676;2023-08-12T03:35:01;9.48;;;5.63;;
26936;SDS011;14495;48.116;11.676;2023-08-12T03:37:29;6.07;;;4.78;;
26936;SDS011;14495;48.116;11.676;2023-08-12T03:39:54;6.95;;;4.63;;
26936;SDS011;14495;48.116;11.676;2023-08-12T03:42:19;7.30;;;4.93;;
26936;SDS011;14495;48.116;11.676;2023-08-12T03:44:47;8.27;;;4.90;;
26936;SDS011;14495;48.116;11.676;2023-08-12T03:47:12;5.75;;;4.40;;
26936;SDS011;14495;48.116;11.676;2023-08-12T03:49:40;5.93;;;5.00;;
26936;SDS011;14495;48.116;11.676;2023-08-12T03:52:05;6.80;;;4.78;;
26936;SDS011;14495;48.116;11.676;2023-08-12T03:54:32;5.53;;;4.60;;
26936;SDS011;14495;48.116;11.676;2023-08-12T03:56:57;5.35;;;4.40;;
26936;SDS011;14495;48.116;11.676;2023-08-12T03:59:23;6.95;;;5.20;;
26936;SDS011;14495;48.116;11.676;2023-08-12T04:01:53;6.32;;;4.57;;
26936;SDS011;14495;48.116;11.676;2023-08-12T04:04:18;7.88;;;4.15;;
26936;SDS011;14495;48.116;11.676;2023-08-12T04:06:44;5.40;;;4.18;;
26936;SDS011;14495;48.116;11.676;2023-08-12T04:09:09;6.05;;;4.78;;
26936;SDS011;14495;48.116;11.676;2023-08-12T04:11:34;5.15;;;4.45;;
26936;SDS011;14495;48.116;11.676;2023-08-12T04:14:00;6.32;;;5.00;;
26936;SDS011;14495;48.116;11.676;2023-08-12T04:16:25;5.97;;;4.65;;
26936;SDS011;14495;48.116;11.676;2023-08-12T04:18:50;6.93;;;4.60;;
26936;SDS011;14495;48.116;11.676;2023-08-12T04:21:18;7.20;;;4.43;;
26936;SDS011;14495;48.116;11.676;2023-08-12T04:23:44;5.30;;;4.40;;
26936;SDS011;14495;48.116;11.676;2023-08-12T04:26:10;7.70;;;4.45;;
26936;SDS011;14495;48.116;11.676;2023-08-12T04:28:35;10.02;;;4.97;;
26936;SDS011;14495;48.116;11.676;2023-08-12T04:31:00;7.72;;;4.50;;
26936;SDS011;14495;48.116;11.676;2023-08-12T04:33:31;16.38;;;6.15;;
26936;SDS011;14495;48.116;11.676;2023-08-12T04:35:56;6.30;;;5.30;;
26936;SDS011;14495;48.116;11.676;2023-08-12T04:38:24;7.60;;;4.82;;
26936;SDS011;14495;48.116;11.676;2023-08-12T04:40:52;10.88;;;4.40;;
26936;SDS011;14495;48.116;11.676;2023-08-12T04:43:20;4.70;;;3.95;;
26936;SDS011;14495;48.116;11.676;2023-08-12T04:45:46;6.43;;;4.35;;
26936;SDS011;14495;48.116;11.676;2023-08-12T04:48:12;7.47;;;4.57;;
26936;SDS011;14495;48.116;11.676;2023-08-12T04:50:41;6.03;;;4.75;;
26936;SDS011;14495;48.116;11.676;2023-08-12T04:53:07;5.20;;;4.53;;
26936;SDS011;14495;48.116;11.676;2023-08-12T04:55:33;5.88;;;4.68;;
26936;SDS011;14495;48.116;11.676;2023-08-12T04:57:59;6.60;;;4.47;;
26936;SDS011;14495;48.116;11.676;2023-08-12T05:00:24;5.65;;;4.45;;
26936;SDS011;14495;48.116;11.676;2023-08-12T05:02:50;6.75;;;4.10;;
26936;SDS011;14495;48.116;11.676;2023-08-12T05:05:16;7.35;;;4.57;;
26936;SDS011;14495;48.116;11.676;2023-08-12T05:07:41;8.05;;;4.60;;
26936;SDS011;14495;48.116;11.676;2023-08-12T05:10:07;6.47;;;4.75;;
26936;SDS011;14495;48.116;11.676;2023-08-12T05:12:32;11.57;;;4.40;;
26936;SDS011;14495;48.116;11.676;2023-08-12T05:14:58;5.85;;;4.03;;
26936;SDS011;14495;48.116;11.676;2023-08-12T05:17:23;6.20;;;4.40;;
26936;SDS011;14495;48.116;11.676;2023-08-12T05:19:49;8.05;;;4.30;;
26936;SDS011;14495;48.116;11.676;2023-08-12T05:22:15;6.63;;;4.38;;
26936;SDS011;14495;48.116;11.676;2023-08-12T05:24:40;6.60;;;4.70;;
26936;SDS011;14495;48.116;11.676;2023-08-12T05:27:06;9.20;;;4.50;;
26936;SDS011;14495;48.116;11.676;2023-08-12T05:29:31;5.25;;;3.90;;
26936;SDS011;14495;48.116;11.676;2023-08-12T05:31:56;10.15;;;4.30;;
26936;SDS011;14495;48.116;11.676;2023-08-12T05:34:22;7.80;;;4.57;;
26936;SDS011;14495;48.116;11.676;2023-08-12T05:36:47;5.72;;;3.78;;
26936;SDS011;14495;48.116;11.676;2023-08-12T05:39:15;4.95;;;3.67;;
26936;SDS011;14495;48.116;11.676;2023-08-12T05:41:41;4.05;;;3.55;;
26936;SDS011;14495;48.116;11.676;2023-08-12T05:44:07;4.78;;;3.28;;
26936;SDS011;14495;48.116;11.676;2023-08-12T05:46:33;3.83;;;3.05;;
26936;SDS011;14495;48.116;11.676;2023-08-12T05:48:58;5.40;;;3.55;;
26936;SDS011;14495;48.116;11.676;2023-08-12T05:51:23;4.05;;;3.30;;
26936;SDS011;14495;48.116;11.676;2023-08-12T05:53:49;6.35;;;3.38;;
26936;SDS011;14495;48.116;11.676;2023-08-12T05:56:15;3.83;;;2.97;;
26936;SDS011;14495;48.116;11.676;2023-08-12T05:58:40;7.70;;;3.50;;
26936;SDS011;14495;48.116;11.676;2023-08-12T06:01:05;3.92;;;3.08;;
26936;SDS011;14495;48.116;11.676;2023-08-12T06:03:31;3.60;;;3.17;;
26936;SDS011;14495;48.116;11.676;2023-08-12T06:05:56;3.95;;;3.13;;
26936;SDS011;14495;48.116;11.676;2023-08-12T06:08:21;3.60;;;2.78;;
26936;SDS011;14495;48.116;11.676;2023-08-12T06:10:47;4.65;;;2.53;;
26936;SDS011;14495;48.116;11.676;2023-08-12T06:13:12;3.17;;;2.65;;
26936;SDS011;14495;48.116;11.676;2023-08-12T06:15:38;3.28;;;2.60;;
26936;SDS011;14495;48.116;11.676;2023-08-12T06:18:04;3.90;;;2.60;;
26936;SDS011;14495;48.116;11.676;2023-08-12T06:20:32;3.67;;;2.55;;
26936;SDS011;14495;48.116;11.676;2023-08-12T06:22:57;3.80;;;2.40;;
26936;SDS011;14495;48.116;11.676;2023-08-12T06:25:23;3.92;;;2.60;;
26936;SDS011;14495;48.116;11.676;2023-08-12T06:27:49;4.70;;;2.45;;
26936;SDS011;14495;48.116;11.676;2023-08-12T06:30:14;2.78;;;2.30;;
26936;SDS011;14495;48.116;11.676;2023-08-12T06:32:39;2.45;;;2.00;;
26936;SDS011;14495;48.116;11.676;2023-08-12T06:35:05;2.63;;;1.60;;
26936;SDS011;14495;48.116;11.676;2023-08-12T06:37:31;2.17;;;1.98;;
26936;SDS011;14495;48.116;11.676;2023-08-12T06:39:59;5.97;;;2.08;;
26936;SDS011;14495;48.116;11.676;2023-08-12T06:42:24;3.80;;;2.17;;
26936;SDS011;14495;48.116;11.676;2023-08-12T06:44:54;3.50;;;1.98;;
26936;SDS011;14495;48.116;11.676;2023-08-12T06:49:49;3.83;;;2.05;;
26936;SDS011;14495;48.116;11.676;2023-08-12T06:52:14;2.22;;;2.00;;
26936;SDS011;14495;48.116;11.676;2023-08-12T06:54:41;2.38;;;1.88;;
26936;SDS011;14495;48.116;11.676;2023-08-12T06:57:07;2.35;;;2.08;;
26936;SDS011;14495;48.116;11.676;2023-08-12T06:59:32;2.33;;;1.83;;
26936;SDS011;14495;48.116;11.676;2023-08-12T07:01:57;2.13;;;1.92;;
26936;SDS011;14495;48.116;11.676;2023-08-12T07:04:23;5.82;;;2.28;;
26936;SDS011;14495;48.116;11.676;2023-08-12T07:06:48;4.10;;;2.00;;
26936;SDS011;14495;48.116;11.676;2023-08-12T07:09:13;2.78;;;2.03;;
26936;SDS011;14495;48.116;11.676;2023-08-12T07:11:39;3.65;;;2.15;;
26936;SDS011;14495;48.116;11.676;2023-08-12T07:14:05;2.00;;;1.73;;
26936;SDS011;14495;48.116;11.676;2023-08-12T07:16:30;2.58;;;1.88;;
26936;SDS011;14495;48.116;11.676;2023-08-12T07:18:55;3.45;;;1.90;;
26936;SDS011;14495;48.116;11.676;2023-08-12T07:21:21;4.38;;;2.05;;
26936;SDS011;14495;48.116;11.676;2023-08-12T07:23:46;3.15;;;1.90;;
26936;SDS011;14495;48.116;11.676;2023-08-12T07:26:16;3.45;;;2.08;;
26936;SDS011;14495;48.116;11.676;2023-08-12T07:28:41;4.40;;;1.85;;
26936;SDS011;14495;48.116;11.676;2023-08-12T07:31:06;1.90;;;1.80;;
26936;SDS011;14495;48.116;11.676;2023-08-12T07:33:32;6.32;;;2.00;;
26936;SDS011;14495;48.116;11.676;2023-08-12T07:35:57;2.60;;;1.83;;
26936;SDS011;14495;48.116;11.676;2023-08-12T07:38:23;2.25;;;2.05;;
26936;SDS011;14495;48.116;11.676;2023-08-12T07:40:48;2.70;;;1.90;;
26936;SDS011;14495;48.116;11.676;2023-08-12T07:43:14;2.05;;;1.80;;
26936;SDS011;14495;48.116;11.676;2023-08-12T07:45:40;2.13;;;1.83;;
26936;SDS011;14495;48.116;11.676;2023-08-12T07:48:05;7.68;;;1.90;;
26936;SDS011;14495;48.116;11.676;2023-08-12T07:50:30;2.50;;;2.08;;
26936;SDS011;14495;48.116;11.676;2023-08-12T07:52:56;4.70;;;1.90;;
26936;SDS011;14495;48.116;11.676;2023-08-12T07:55:21;3.80;;;2.03;;
26936;SDS011;14495;48.116;11.676;2023-08-12T07:57:47;6.22;;;1.90;;
26936;SDS011;14495;48.116;11.676;2023-08-12T08:00:13;2.35;;;2.15;;
26936;SDS011;14495;48.116;11.676;2023-08-12T08:02:38;3.00;;;2.17;;
26936;SDS011;14495;48.116;11.676;2023-08-12T08:05:07;3.63;;;2.47;;
26936;SDS011;14495;48.116;11.676;2023-08-12T08:07:33;3.45;;;2.30;;
26936;SDS011;14495;48.116;11.676;2023-08-12T08:09:59;2.97;;;2.08;;
26936;SDS011;14495;48.116;11.676;2023-08-12T08:12:25;3.33;;;2.70;;
26936;SDS011;14495;48.116;11.676;2023-08-12T08:14:51;3.38;;;2.40;;
26936;SDS011;14495;48.116;11.676;2023-08-12T08:17:16;3.72;;;2.47;;
26936;SDS011;14495;48.116;11.676;2023-08-12T08:19:42;2.65;;;2.42;;
26936;SDS011;14495;48.116;11.676;2023-08-12T08:22:10;4.30;;;2.33;;
26936;SDS011;14495;48.116;11.676;2023-08-12T08:24:35;5.93;;;2.38;;
26936;SDS011;14495;48.116;11.676;2023-08-12T08:27:01;3.65;;;2.65;;
26936;SDS011;14495;48.116;11.676;2023-08-12T08:29:29;3.95;;;2.70;;
26936;SDS011;14495;48.116;11.676;2023-08-12T08:31:54;6.47;;;3.28;;
26936;SDS011;14495;48.116;11.676;2023-08-12T08:34:20;2.50;;;2.22;;
26936;SDS011;14495;48.116;11.676;2023-08-12T08:36:45;2.55;;;2.35;;
26936;SDS011;14495;48.116;11.676;2023-08-12T08:39:13;2.58;;;2.20;;
26936;SDS011;14495;48.116;11.676;2023-08-12T08:41:39;4.78;;;2.70;;
26936;SDS011;14495;48.116;11.676;2023-08-12T08:44:08;3.00;;;2.25;;
26936;SDS011;14495;48.116;11.676;2023-08-12T08:46:36;2.83;;;2.15;;
26936;SDS011;14495;48.116;11.676;2023-08-12T08:49:02;2.10;;;1.90;;
26936;SDS011;14495;48.116;11.676;2023-08-12T08:51:30;2.42;;;2.13;;
26936;SDS011;14495;48.116;11.676;2023-08-12T08:53:57;2.30;;;2.00;;
26936;SDS011;14495;48.116;11.676;2023-08-12T08:56:23;4.07;;;2.50;;
26936;SDS011;14495;48.116;11.676;2023-08-12T08:58:51;3.80;;;2.38;;
26936;SDS011;14495;48.116;11.676;2023-08-12T09:01:18;3.97;;;2.78;;
26936;SDS011;14495;48.116;11.676;2023-08-12T09:03:47;2.47;;;2.13;;
26936;SDS011;14495;48.116;11.676;2023-08-12T09:06:12;4.13;;;2.50;;
26936;SDS011;14495;48.116;11.676;2023-08-12T09:08:38;2.85;;;2.50;;
26936;SDS011;14495;48.116;11.676;2023-08-12T09:11:08;2.80;;;2.27;;
26936;SDS011;14495;48.116;11.676;2023-08-12T09:13:35;3.15;;;2.25;;
26936;SDS011;14495;48.116;11.676;2023-08-12T09:16:01;6.80;;;2.60;;
26936;SDS011;14495;48.116;11.676;2023-08-12T09:18:26;2.83;;;2.45;;
26936;SDS011;14495;48.116;11.676;2023-08-12T09:20:58;3.35;;;2.25;;
26936;SDS011;14495;48.116;11.676;2023-08-12T09:23:25;2.90;;;2.25;;
26936;SDS011;14495;48.116;11.676;2023-08-12T09:25:51;4.97;;;2.75;;
26936;SDS011;14495;48.116;11.676;2023-08-12T09:28:18;3.65;;;2.58;;
26936;SDS011;14495;48.116;11.676;2023-08-12T09:30:44;2.60;;;2.40;;
26936;SDS011;14495;48.116;11.676;2023-08-12T09:33:17;4.75;;;2.65;;
26936;SDS011;14495;48.116;11.676;2023-08-12T09:35:50;4.07;;;2.45;;
26936;SDS011;14495;48.116;11.676;2023-08-12T09:38:17;3.22;;;2.35;;
26936;SDS011;14495;48.116;11.676;2023-08-12T09:40:43;4.65;;;2.40;;
26936;SDS011;14495;48.116;11.676;2023-08-12T09:43:09;2.90;;;2.30;;
26936;SDS011;14495;48.116;11.676;2023-08-12T09:45:36;3.15;;;2.40;;
26936;SDS011;14495;48.116;11.676;2023-08-12T09:48:04;3.88;;;2.25;;
26936;SDS011;14495;48.116;11.676;2023-08-12T09:50:33;4.00;;;2.55;;
26936;SDS011;14495;48.116;11.676;2023-08-12T09:53:01;2.90;;;2.60;;
26936;SDS011;14495;48.116;11.676;2023-08-12T09:55:29;4.20;;;2.22;;
26936;SDS011;14495;48.116;11.676;2023-08-12T09:57:56;3.08;;;2.67;;
26936;SDS011;14495;48.116;11.676;2023-08-12T10:00:25;5.82;;;2.17;;
26936;SDS011;14495;48.116;11.676;2023-08-12T10:02:52;4.35;;;2.33;;
26936;SDS011;14495;48.116;11.676;2023-08-12T10:05:22;3.15;;;2.15;;
26936;SDS011;14495;48.116;11.676;2023-08-12T10:10:25;3.03;;;2.40;;
26936;SDS011;14495;48.116;11.676;2023-08-12T10:12:57;3.65;;;2.25;;
26936;SDS011;14495;48.116;11.676;2023-08-12T10:15:24;2.40;;;2.20;;
26936;SDS011;14495;48.116;11.676;2023-08-12T10:17:52;3.50;;;2.70;;
26936;SDS011;14495;48.116;11.676;2023-08-12T10:20:23;3.88;;;2.53;;
26936;SDS011;14495;48.116;11.676;2023-08-12T10:22:51;4.55;;;2.60;;
26936;SDS011;14495;48.116;11.676;2023-08-12T10:25:19;4.07;;;2.58;;
26936;SDS011;14495;48.116;11.676;2023-08-12T10:27:47;3.15;;;2.75;;
26936;SDS011;14495;48.116;11.676;2023-08-12T10:30:13;4.35;;;2.70;;
26936;SDS011;14495;48.116;11.676;2023-08-12T10:32:39;2.97;;;2.25;;
26936;SDS011;14495;48.116;11.676;2023-08-12T10:35:05;6.78;;;2.55;;
26936;SDS011;14495;48.116;11.676;2023-08-12T10:37:33;5.10;;;2.72;;
26936;SDS011;14495;48.116;11.676;2023-08-12T10:39:59;3.33;;;2.92;;
26936;SDS011;14495;48.116;11.676;2023-08-12T10:42:45;2.95;;;2.38;;
26936;SDS011;14495;48.116;11.676;2023-08-12T10:45:13;3.75;;;2.65;;
26936;SDS011;14495;48.116;11.676;2023-08-12T10:47:43;4.40;;;2.40;;
26936;SDS011;14495;48.116;11.676;2023-08-12T10:50:30;3.53;;;2.38;;
26936;SDS011;14495;48.116;11.676;2023-08-12T10:52:56;3.67;;;2.67;;
26936;SDS011;14495;48.116;11.676;2023-08-12T10:57:51;4.85;;;2.65;;
26936;SDS011;14495;48.116;11.676;2023-08-12T11:00:22;2.65;;;2.33;;
26936;SDS011;14495;48.116;11.676;2023-08-12T11:02:50;5.50;;;2.75;;
26936;SDS011;14495;48.116;11.676;2023-08-12T11:05:16;3.67;;;2.50;;
26936;SDS011;14495;48.116;11.676;2023-08-12T11:07:45;4.07;;;2.30;;
26936;SDS011;14495;48.116;11.676;2023-08-12T11:10:21;3.45;;;2.03;;
26936;SDS011;14495;48.116;11.676;2023-08-12T11:15:33;3.17;;;2.40;;
26936;SDS011;14495;48.116;11.676;2023-08-12T11:18:07;3.80;;;2.65;;
26936;SDS011;14495;48.116;11.676;2023-08-12T11:20:38;3.28;;;2.30;;
26936;SDS011;14495;48.116;11.676;2023-08-12T11:23:04;5.22;;;2.97;;
26936;SDS011;14495;48.116;11.676;2023-08-12T11:25:30;3.70;;;2.42;;
26936;SDS011;14495;48.116;11.676;2023-08-12T11:27:57;4.53;;;2.50;;
26936;SDS011;14495;48.116;11.676;2023-08-12T11:30:23;2.80;;;2.53;;
26936;SDS011;14495;48.116;11.676;2023-08-12T11:32:50;3.80;;;2.58;;
26936;SDS011;14495;48.116;11.676;2023-08-12T11:35:24;5.05;;;2.97;;
26936;SDS011;14495;48.116;11.676;2023-08-12T11:37:52;5.00;;;2.70;;
26936;SDS011;14495;48.116;11.676;2023-08-12T11:40:20;2.90;;;2.60;;
26936;SDS011;14495;48.116;11.676;2023-08-12T11:42:47;4.15;;;2.70;;
26936;SDS011;14495;48.116;11.676;2023-08-12T11:45:16;3.03;;;2.70;;
26936;SDS011;14495;48.116;11.676;2023-08-12T11:47:51;2.85;;;2.33;;
26936;SDS011;14495;48.116;11.676;2023-08-12T11:50:20;3.15;;;2.28;;
26936;SDS011;14495;48.116;11.676;2023-08-12T11:52:53;7.75;;;4.95;;
26936;SDS011;14495;48.116;11.676;2023-08-12T11:55:20;12.15;;;6.13;;
26936;SDS011;14495;48.116;11.676;2023-08-12T11:57:46;5.05;;;2.95;;
26936;SDS011;14495;48.116;11.676;2023-08-12T12:00:14;4.20;;;2.03;;
26936;SDS011;14495;48.116;11.676;2023-08-12T12:02:47;5.15;;;2.45;;
26936;SDS011;14495;48.116;11.676;2023-08-12T12:05:18;6.53;;;2.53;;
26936;SDS011;14495;48.116;11.676;2023-08-12T12:07:48;3.70;;;2.83;;
26936;SDS011;14495;48.116;11.676;2023-08-12T12:10:18;4.18;;;2.50;;
26936;SDS011;14495;48.116;11.676;2023-08-12T12:12:50;3.33;;;2.60;;
26936;SDS011;14495;48.116;11.676;2023-08-12T12:15:15;7.60;;;2.30;;
26936;SDS011;14495;48.116;11.676;2023-08-12T12:17:41;2.35;;;2.08;;
26936;SDS011;14495;48.116;11.676;2023-08-12T12:20:09;4.38;;;2.50;;
26936;SDS011;14495;48.116;11.676;2023-08-12T12:22:38;2.42;;;2.03;;
26936;SDS011;14495;48.116;11.676;2023-08-12T12:25:10;3.20;;;2.25;;
26936;SDS011;14495;48.116;11.676;2023-08-12T12:27:37;2.70;;;1.95;;
26936;SDS011;14495;48.116;11.676;2023-08-12T12:30:04;4.60;;;2.17;;
26936;SDS011;14495;48.116;11.676;2023-08-12T12:32:33;3.25;;;1.95;;
26936;SDS011;14495;48.116;11.676;2023-08-12T12:34:59;2.65;;;2.10;;
26936;SDS011;14495;48.116;11.676;2023-08-12T12:37:24;1.95;;;1.70;;
26936;SDS011;14495;48.116;11.676;2023-08-12T12:39:50;3.05;;;2.30;;
26936;SDS011;14495;48.116;11.676;2023-08-12T12:42:15;3.10;;;2.30;;
26936;SDS011;14495;48.116;11.676;2023-08-12T12:44:42;3.95;;;2.40;;
26936;SDS011;14495;48.116;11.676;2023-08-12T12:47:07;3.78;;;1.88;;
26936;SDS011;14495;48.116;11.676;2023-08-12T12:49:32;2.63;;;2.00;;
26936;SDS011;14495;48.116;11.676;2023-08-12T12:51:58;2.55;;;2.20;;
26936;SDS011;14495;48.116;11.676;2023-08-12T12:54:23;3.60;;;2.47;;
26936;SDS011;14495;48.116;11.676;2023-08-12T12:56:50;2.28;;;1.90;;
26936;SDS011;14495;48.116;11.676;2023-08-12T12:59:15;2.63;;;2.35;;
26936;SDS011;14495;48.116;11.676;2023-08-12T13:01:41;2.58;;;1.95;;
26936;SDS011;14495;48.116;11.676;2023-08-12T13:04:06;3.05;;;2.10;;
26936;SDS011;14495;48.116;11.676;2023-08-12T13:06:34;2.75;;;2.20;;
26936;SDS011;14495;48.116;11.676;2023-08-12T13:08:59;3.63;;;2.47;;
26936;SDS011;14495;48.116;11.676;2023-08-12T13:11:25;3.45;;;2.20;;
26936;SDS011;14495;48.116;11.676;2023-08-12T13:13:51;4.60;;;2.30;;
26936;SDS011;14495;48.116;11.676;2023-08-12T13:16:16;5.78;;;2.10;;
26936;SDS011;14495;48.116;11.676;2023-08-12T13:18:42;3.70;;;2.42;;
26936;SDS011;14495;48.116;11.676;2023-08-12T13:21:08;3.83;;;2.75;;
26936;SDS011;14495;48.116;11.676;2023-08-12T13:23:36;4.38;;;2.40;;
26936;SDS011;14495;48.116;11.676;2023-08-12T13:26:04;5.60;;;2.70;;
26936;SDS011;14495;48.116;11.676;2023-08-12T13:28:29;3.08;;;2.55;;
26936;SDS011;14495;48.116;11.676;2023-08-12T13:30:57;4.28;;;2.65;;
26936;SDS011;14495;48.116;11.676;2023-08-12T13:33:22;4.65;;;2.88;;
26936;SDS011;14495;48.116;11.676;2023-08-12T13:35:48;3.20;;;2.33;;
26936;SDS011;14495;48.116;11.676;2023-08-12T13:38:14;4.82;;;2.58;;
26936;SDS011;14495;48.116;11.676;2023-08-12T13:40:39;4.13;;;2.65;;
26936;SDS011;14495;48.116;11.676;2023-08-12T13:43:04;4.85;;;2.63;;
26936;SDS011;14495;48.116;11.676;2023-08-12T13:45:31;5.38;;;3.05;;
26936;SDS011;14495;48.116;11.676;2023-08-12T13:47:56;3.80;;;2.78;;
26936;SDS011;14495;48.116;11.676;2023-08-12T13:50:22;4.60;;;3.00;;
26936;SDS011;14495;48.116;11.676;2023-08-12T13:52:47;5.85;;;3.28;;
26936;SDS011;14495;48.116;11.676;2023-08-12T13:55:14;3.97;;;2.55;;
26936;SDS011;14495;48.116;11.676;2023-08-12T13:57:39;4.40;;;2.40;;
26936;SDS011;14495;48.116;11.676;2023-08-12T14:00:06;5.35;;;2.75;;
26936;SDS011;14495;48.116;11.676;2023-08-12T14:02:35;2.80;;;2.40;;
26936;SDS011;14495;48.116;11.676;2023-08-12T14:05:01;2.72;;;2.25;;
26936;SDS011;14495;48.116;11.676;2023-08-12T14:07:28;5.20;;;2.50;;
26936;SDS011;14495;48.116;11.676;2023-08-12T14:09:53;3.03;;;2.20;;
26936;SDS011;14495;48.116;11.676;2023-08-12T14:12:18;5.78;;;2.92;;
26936;SDS011;14495;48.116;11.676;2023-08-12T14:14:44;3.70;;;2.30;;
26936;SDS011;14495;48.116;11.676;2023-08-12T14:17:10;4.18;;;2.50;;
26936;SDS011;14495;48.116;11.676;2023-08-12T14:19:38;4.00;;;2.70;;
26936;SDS011;14495;48.116;11.676;2023-08-12T14:22:04;4.95;;;2.67;;
26936;SDS011;14495;48.116;11.676;2023-08-12T14:24:32;3.55;;;2.40;;
26936;SDS011;14495;48.116;11.676;2023-08-12T14:26:58;4.80;;;2.08;;
26936;SDS011;14495;48.116;11.676;2023-08-12T14:29:23;3.10;;;2.30;;
26936;SDS011;14495;48.116;11.676;2023-08-12T14:31:48;3.70;;;2.13;;
26936;SDS011;14495;48.116;11.676;2023-08-12T14:34:14;5.80;;;2.50;;
26936;SDS011;14495;48.116;11.676;2023-08-12T14:36:39;3.22;;;2.30;;
26936;SDS011;14495;48.116;11.676;2023-08-12T14:39:05;2.97;;;2.45;;
26936;SDS011;14495;48.116;11.676;2023-08-12T14:41:30;2.63;;;2.25;;
26936;SDS011;14495;48.116;11.676;2023-08-12T14:43:56;3.72;;;2.72;;